KASL/ASL METAR and TAF weather

Enter ICAO airport designator
Station Type Date Time Source
KASL METAR 2019/10/20 18:35 UTC NOAA

KASL 201835Z AUTO 23003KT 10SM CLR 30/18 A2981 RMK AO1 T02950178


Station Type Date Time Source
KASL Decoded METAR 2019/10/20 18:35 UTC NOAA

Station name not available
Oct 20, 2019 - 02:35 PM EDT / 2019.10.20 1835 UTC
Wind: from the SW (230 degrees) at 3 MPH (3 KT):0
Visibility: 10 mile(s):0
Sky conditions: clear
Temperature: 85.1 F (29.5 C)
Dew Point: 64.0 F (17.8 C)
Relative Humidity: 49%
Pressure (altimeter): 29.81 in. Hg (1009 hPa)
ob: KASL 201835Z AUTO 23003KT 10SM CLR 30/18 A2981 RMK AO1 T02950178
cycle: 18

Station Type Date Time Source
KASL TAF UTC NOAA

Error!

Example: see airport list